首页
METAR-TAF:

METAR-TAF

机场 :

阿尔及尔胡阿里·布迈丁机场

阿爾及爾, 阿尔及利亚

纬度: 36-43N, 经度: 003-15E, 海拔: 25米

当前天气观测

该预报发布于12分钟前的17:30 UTC
风速9节,风向东转东北
温度 21°C
湿度 69%
气压 1010 hPa
能见度10公里或以上
少量云层高于2600英尺
多云层高于10000英尺

METAR: DAAG 241730Z 07009KT 9999 FEW026 BKN100 21/15 Q1010

时间: 18:42 (17:42 UTC)

预报

该预报发布于42分钟前的17:00 UTC
预报有效从24日的 18点(UTC)到 25日的 18点(UTC)
风速10节,风向北转东北
能见度10公里或以上
少量云层高于2600英尺
多云层高于9000英尺
成为
从 24日的 19点(UTC)到 24日的 22点(UTC)
风速2节,风向多变
几率 30% :
短暂存在
从 25日的 00点(UTC)到 25日的 06点(UTC)
能見度: 3000
多云层高于1300英尺
小毛毛雨, 轻雾
几率 40% :
短暂存在
从 25日的 07点(UTC)到 25日的 10点(UTC)
少量云层高于2600英尺, 积雨云.
成为
从 25日的 08点(UTC)到 25日的 10点(UTC)
风速12节,风向北转东北
几率 30% :
短暂存在
从 25日的 10点(UTC)到 25日的 18点(UTC)
风速15节,风向北转东北,有时为25节阵风
能見度: 5000
少量云层高于2300英尺, 积雨云.
雷暴, 小雨

TAF: DAAG 241700Z 2418/2518 02010KT 9999 FEW026 BKN090 BECMG 2419/2422 VRB02KT PROB30 TEMPO 2500/2506 3000 -DZBR BKN013 PROB40 TEMPO 2507/2510 FEW026CB BECMG 2508/2510 02012KT PROB30 TEMPO 2510/2518 02015G25KT 5000 -TSRA FEW023CB

超过4000个机场的气象观测和天气预报(METAR&TAF报告)。

可查询的气象台以黄色和红色小点在地图上表示。

将鼠标移到小点上方,可查看气象台名称。

然后点击查看天气观测和预报。

如需切换地图:点击带黑十字的绿色按钮放大地图;点击带横线的绿色按钮缩小地图;或者点击绿色箭头查看邻近地区的地图。


METAR-TAF: